sensor_id;sensor_type;location;lat;lon;timestamp;P1;durP1;ratioP1;P2;durP2;ratioP2
803;SDS011;25687;49.976;8.240;2023-02-28T00:00:13;2.43;;;1.87;;
803;SDS011;25687;49.976;8.240;2023-02-28T00:02:39;2.60;;;2.23;;
803;SDS011;25687;49.976;8.240;2023-02-28T00:05:08;2.77;;;2.17;;
803;SDS011;25687;49.976;8.240;2023-02-28T00:07:34;4.40;;;2.30;;
803;SDS011;25687;49.976;8.240;2023-02-28T00:10:00;2.90;;;2.33;;
803;SDS011;25687;49.976;8.240;2023-02-28T00:12:26;3.60;;;2.63;;
803;SDS011;25687;49.976;8.240;2023-02-28T00:14:52;4.57;;;2.17;;
803;SDS011;25687;49.976;8.240;2023-02-28T00:17:17;2.83;;;2.53;;
803;SDS011;25687;49.976;8.240;2023-02-28T00:19:46;2.57;;;2.37;;
803;SDS011;25687;49.976;8.240;2023-02-28T00:22:12;2.33;;;2.13;;
803;SDS011;25687;49.976;8.240;2023-02-28T00:24:38;2.50;;;2.27;;
803;SDS011;25687;49.976;8.240;2023-02-28T00:27:03;2.47;;;2.27;;
803;SDS011;25687;49.976;8.240;2023-02-28T00:29:28;2.70;;;2.50;;
803;SDS011;25687;49.976;8.240;2023-02-28T00:31:53;3.87;;;2.30;;
803;SDS011;25687;49.976;8.240;2023-02-28T00:34:19;2.63;;;2.40;;
803;SDS011;25687;49.976;8.240;2023-02-28T00:36:44;2.93;;;2.60;;
803;SDS011;25687;49.976;8.240;2023-02-28T00:39:11;2.40;;;2.20;;
803;SDS011;25687;49.976;8.240;2023-02-28T00:41:36;2.33;;;2.13;;
803;SDS011;25687;49.976;8.240;2023-02-28T00:44:02;2.70;;;2.30;;
803;SDS011;25687;49.976;8.240;2023-02-28T00:46:27;3.50;;;2.57;;
803;SDS011;25687;49.976;8.240;2023-02-28T00:48:52;4.37;;;2.77;;
803;SDS011;25687;49.976;8.240;2023-02-28T00:51:17;3.00;;;2.80;;
803;SDS011;25687;49.976;8.240;2023-02-28T00:53:43;2.47;;;2.27;;
803;SDS011;25687;49.976;8.240;2023-02-28T00:56:08;3.37;;;2.60;;
803;SDS011;25687;49.976;8.240;2023-02-28T00:58:33;3.30;;;2.60;;
803;SDS011;25687;49.976;8.240;2023-02-28T01:00:59;3.50;;;2.80;;
803;SDS011;25687;49.976;8.240;2023-02-28T01:03:24;2.50;;;2.30;;
803;SDS011;25687;49.976;8.240;2023-02-28T01:05:50;3.33;;;2.80;;
803;SDS011;25687;49.976;8.240;2023-02-28T01:08:18;2.87;;;2.50;;
803;SDS011;25687;49.976;8.240;2023-02-28T01:10:43;3.70;;;2.97;;
803;SDS011;25687;49.976;8.240;2023-02-28T01:13:09;4.80;;;2.80;;
803;SDS011;25687;49.976;8.240;2023-02-28T01:15:35;4.67;;;2.87;;
803;SDS011;25687;49.976;8.240;2023-02-28T01:18:00;3.43;;;2.90;;
803;SDS011;25687;49.976;8.240;2023-02-28T01:20:25;3.20;;;2.90;;
803;SDS011;25687;49.976;8.240;2023-02-28T01:22:51;3.67;;;3.30;;
803;SDS011;25687;49.976;8.240;2023-02-28T01:25:16;3.10;;;2.90;;
803;SDS011;25687;49.976;8.240;2023-02-28T01:27:41;2.90;;;2.70;;
803;SDS011;25687;49.976;8.240;2023-02-28T01:30:07;3.33;;;3.03;;
803;SDS011;25687;49.976;8.240;2023-02-28T01:32:35;4.13;;;3.73;;
803;SDS011;25687;49.976;8.240;2023-02-28T01:35:00;4.80;;;3.33;;
803;SDS011;25687;49.976;8.240;2023-02-28T01:37:26;5.50;;;3.43;;
803;SDS011;25687;49.976;8.240;2023-02-28T01:39:51;3.70;;;3.40;;
803;SDS011;25687;49.976;8.240;2023-02-28T01:42:17;3.40;;;3.10;;
803;SDS011;25687;49.976;8.240;2023-02-28T01:47:30;7.83;;;3.73;;
803;SDS011;25687;49.976;8.240;2023-02-28T01:49:59;3.83;;;3.43;;
803;SDS011;25687;49.976;8.240;2023-02-28T01:52:27;4.70;;;4.20;;
803;SDS011;25687;49.976;8.240;2023-02-28T01:54:54;4.47;;;4.07;;
803;SDS011;25687;49.976;8.240;2023-02-28T01:57:23;5.47;;;4.23;;
803;SDS011;25687;49.976;8.240;2023-02-28T02:00:03;5.97;;;3.80;;
803;SDS011;25687;49.976;8.240;2023-02-28T02:02:32;4.53;;;4.10;;
803;SDS011;25687;49.976;8.240;2023-02-28T02:05:02;6.03;;;4.63;;
803;SDS011;25687;49.976;8.240;2023-02-28T02:07:33;4.73;;;4.33;;
803;SDS011;25687;49.976;8.240;2023-02-28T02:10:04;6.27;;;4.57;;
803;SDS011;25687;49.976;8.240;2023-02-28T02:15:12;4.40;;;4.00;;
803;SDS011;25687;49.976;8.240;2023-02-28T02:17:50;5.57;;;4.47;;
803;SDS011;25687;49.976;8.240;2023-02-28T02:28:22;6.83;;;4.83;;
803;SDS011;25687;49.976;8.240;2023-02-28T02:36:24;4.63;;;4.23;;
803;SDS011;25687;49.976;8.240;2023-02-28T02:39:01;5.70;;;4.53;;
803;SDS011;25687;49.976;8.240;2023-02-28T02:41:28;6.80;;;4.90;;
803;SDS011;25687;49.976;8.240;2023-02-28T02:44:18;5.17;;;4.67;;
803;SDS011;25687;49.976;8.240;2023-02-28T02:47:11;5.43;;;4.30;;
803;SDS011;25687;49.976;8.240;2023-02-28T02:49:42;6.03;;;4.97;;
803;SDS011;25687;49.976;8.240;2023-02-28T02:52:12;6.40;;;4.60;;
803;SDS011;25687;49.976;8.240;2023-02-28T02:54:43;5.47;;;4.97;;
803;SDS011;25687;49.976;8.240;2023-02-28T02:57:15;5.47;;;4.57;;
803;SDS011;25687;49.976;8.240;2023-02-28T02:59:47;5.10;;;4.47;;
803;SDS011;25687;49.976;8.240;2023-02-28T03:02:17;5.63;;;4.57;;
803;SDS011;25687;49.976;8.240;2023-02-28T03:04:48;6.53;;;5.20;;
803;SDS011;25687;49.976;8.240;2023-02-28T03:07:17;5.37;;;4.87;;
803;SDS011;25687;49.976;8.240;2023-02-28T03:09:50;4.50;;;4.10;;
803;SDS011;25687;49.976;8.240;2023-02-28T03:12:20;6.10;;;3.93;;
803;SDS011;25687;49.976;8.240;2023-02-28T03:17:23;5.10;;;4.60;;
803;SDS011;25687;49.976;8.240;2023-02-28T03:20:57;4.17;;;3.77;;
803;SDS011;25687;49.976;8.240;2023-02-28T03:23:17;4.30;;;3.97;;
803;SDS011;25687;49.976;8.240;2023-02-28T03:25:51;4.33;;;3.93;;
803;SDS011;25687;49.976;8.240;2023-02-28T03:31:33;5.10;;;4.00;;
803;SDS011;25687;49.976;8.240;2023-02-28T03:34:10;4.90;;;4.17;;
803;SDS011;25687;49.976;8.240;2023-02-28T03:36:43;4.87;;;3.80;;
803;SDS011;25687;49.976;8.240;2023-02-28T03:39:16;4.83;;;4.30;;
803;SDS011;25687;49.976;8.240;2023-02-28T03:41:49;4.63;;;4.23;;
803;SDS011;25687;49.976;8.240;2023-02-28T03:44:21;4.60;;;4.03;;
803;SDS011;25687;49.976;8.240;2023-02-28T03:46:54;4.30;;;3.90;;
803;SDS011;25687;49.976;8.240;2023-02-28T03:49:27;4.30;;;3.90;;
803;SDS011;25687;49.976;8.240;2023-02-28T03:51:57;5.47;;;3.60;;
803;SDS011;25687;49.976;8.240;2023-02-28T03:54:33;4.13;;;3.73;;
803;SDS011;25687;49.976;8.240;2023-02-28T03:57:04;4.27;;;3.87;;
803;SDS011;25687;49.976;8.240;2023-02-28T03:59:42;4.17;;;3.77;;
803;SDS011;25687;49.976;8.240;2023-02-28T04:02:11;3.77;;;3.47;;
803;SDS011;25687;49.976;8.240;2023-02-28T04:04:36;4.23;;;3.83;;
803;SDS011;25687;49.976;8.240;2023-02-28T04:07:03;6.10;;;3.70;;
803;SDS011;25687;49.976;8.240;2023-02-28T04:09:30;4.33;;;3.53;;
803;SDS011;25687;49.976;8.240;2023-02-28T04:11:55;3.67;;;3.23;;
803;SDS011;25687;49.976;8.240;2023-02-28T04:14:23;4.47;;;3.33;;
803;SDS011;25687;49.976;8.240;2023-02-28T04:16:49;4.13;;;3.03;;
803;SDS011;25687;49.976;8.240;2023-02-28T04:19:16;4.33;;;3.53;;
803;SDS011;25687;49.976;8.240;2023-02-28T04:21:42;5.57;;;3.90;;
803;SDS011;25687;49.976;8.240;2023-02-28T04:24:10;4.27;;;3.70;;
803;SDS011;25687;49.976;8.240;2023-02-28T04:26:42;3.70;;;3.40;;
803;SDS011;25687;49.976;8.240;2023-02-28T04:29:10;5.53;;;3.40;;
803;SDS011;25687;49.976;8.240;2023-02-28T04:31:37;3.63;;;3.07;;
803;SDS011;25687;49.976;8.240;2023-02-28T04:34:02;3.93;;;3.50;;
803;SDS011;25687;49.976;8.240;2023-02-28T04:36:28;4.00;;;3.70;;
803;SDS011;25687;49.976;8.240;2023-02-28T04:38:53;4.03;;;3.53;;
803;SDS011;25687;49.976;8.240;2023-02-28T04:41:19;3.53;;;3.23;;
803;SDS011;25687;49.976;8.240;2023-02-28T04:43:45;3.63;;;3.33;;
803;SDS011;25687;49.976;8.240;2023-02-28T04:46:10;4.07;;;3.20;;
803;SDS011;25687;49.976;8.240;2023-02-28T04:48:37;4.10;;;3.67;;
803;SDS011;25687;49.976;8.240;2023-02-28T04:51:04;5.23;;;3.23;;
803;SDS011;25687;49.976;8.240;2023-02-28T04:53:39;4.20;;;3.80;;
803;SDS011;25687;49.976;8.240;2023-02-28T04:56:06;3.83;;;3.20;;
803;SDS011;25687;49.976;8.240;2023-02-28T04:58:33;3.57;;;3.27;;
803;SDS011;25687;49.976;8.240;2023-02-28T05:01:03;3.40;;;3.10;;
803;SDS011;25687;49.976;8.240;2023-02-28T05:03:30;4.43;;;4.03;;
803;SDS011;25687;49.976;8.240;2023-02-28T05:05:55;3.63;;;3.33;;
803;SDS011;25687;49.976;8.240;2023-02-28T05:08:20;3.90;;;3.60;;
803;SDS011;25687;49.976;8.240;2023-02-28T05:10:46;3.43;;;3.13;;
803;SDS011;25687;49.976;8.240;2023-02-28T05:13:11;4.30;;;3.50;;
803;SDS011;25687;49.976;8.240;2023-02-28T05:15:37;4.40;;;3.63;;
803;SDS011;25687;49.976;8.240;2023-02-28T05:18:05;3.57;;;3.27;;
803;SDS011;25687;49.976;8.240;2023-02-28T05:20:33;4.50;;;3.30;;
803;SDS011;25687;49.976;8.240;2023-02-28T05:22:58;3.97;;;3.53;;
803;SDS011;25687;49.976;8.240;2023-02-28T05:25:25;6.30;;;4.10;;
803;SDS011;25687;49.976;8.240;2023-02-28T05:27:50;3.50;;;3.20;;
803;SDS011;25687;49.976;8.240;2023-02-28T05:30:15;3.57;;;3.27;;
803;SDS011;25687;49.976;8.240;2023-02-28T05:32:41;4.00;;;3.60;;
803;SDS011;25687;49.976;8.240;2023-02-28T05:35:10;4.10;;;3.07;;
803;SDS011;25687;49.976;8.240;2023-02-28T05:37:36;4.37;;;2.93;;
803;SDS011;25687;49.976;8.240;2023-02-28T05:40:02;3.63;;;3.33;;
803;SDS011;25687;49.976;8.240;2023-02-28T05:42:31;3.53;;;2.93;;
803;SDS011;25687;49.976;8.240;2023-02-28T05:44:56;3.87;;;3.30;;
803;SDS011;25687;49.976;8.240;2023-02-28T05:47:22;3.37;;;3.07;;
803;SDS011;25687;49.976;8.240;2023-02-28T05:49:47;3.43;;;3.13;;
803;SDS011;25687;49.976;8.240;2023-02-28T05:52:12;3.13;;;2.80;;
803;SDS011;25687;49.976;8.240;2023-02-28T05:54:37;5.73;;;3.17;;
803;SDS011;25687;49.976;8.240;2023-02-28T05:57:03;3.30;;;3.00;;
803;SDS011;25687;49.976;8.240;2023-02-28T05:59:28;3.37;;;2.87;;
803;SDS011;25687;49.976;8.240;2023-02-28T06:01:53;3.37;;;3.10;;
803;SDS011;25687;49.976;8.240;2023-02-28T06:04:19;3.80;;;3.03;;
803;SDS011;25687;49.976;8.240;2023-02-28T06:06:46;3.63;;;3.33;;
803;SDS011;25687;49.976;8.240;2023-02-28T06:09:12;3.13;;;2.83;;
803;SDS011;25687;49.976;8.240;2023-02-28T06:11:38;3.50;;;2.97;;
803;SDS011;25687;49.976;8.240;2023-02-28T06:14:04;3.83;;;3.17;;
803;SDS011;25687;49.976;8.240;2023-02-28T06:16:30;3.63;;;3.00;;
803;SDS011;25687;49.976;8.240;2023-02-28T06:18:59;3.50;;;2.80;;
803;SDS011;25687;49.976;8.240;2023-02-28T06:21:25;3.40;;;3.10;;
803;SDS011;25687;49.976;8.240;2023-02-28T06:23:55;4.13;;;2.97;;
803;SDS011;25687;49.976;8.240;2023-02-28T06:26:21;3.80;;;3.37;;
803;SDS011;25687;49.976;8.240;2023-02-28T06:28:47;3.63;;;2.90;;
803;SDS011;25687;49.976;8.240;2023-02-28T06:31:13;3.43;;;3.10;;
803;SDS011;25687;49.976;8.240;2023-02-28T06:33:40;4.03;;;2.77;;
803;SDS011;25687;49.976;8.240;2023-02-28T06:36:07;3.53;;;3.23;;
803;SDS011;25687;49.976;8.240;2023-02-28T06:38:34;4.07;;;3.10;;
803;SDS011;25687;49.976;8.240;2023-02-28T06:41:00;3.23;;;2.80;;
803;SDS011;25687;49.976;8.240;2023-02-28T06:43:30;4.20;;;3.00;;
803;SDS011;25687;49.976;8.240;2023-02-28T06:45:58;4.47;;;3.23;;
803;SDS011;25687;49.976;8.240;2023-02-28T06:48:25;5.73;;;3.37;;
803;SDS011;25687;49.976;8.240;2023-02-28T06:50:52;4.50;;;2.83;;
803;SDS011;25687;49.976;8.240;2023-02-28T06:53:25;3.40;;;3.10;;
803;SDS011;25687;49.976;8.240;2023-02-28T06:55:51;2.93;;;2.70;;
803;SDS011;25687;49.976;8.240;2023-02-28T06:58:16;4.33;;;3.20;;
803;SDS011;25687;49.976;8.240;2023-02-28T07:00:44;5.60;;;3.30;;
803;SDS011;25687;49.976;8.240;2023-02-28T07:03:11;4.03;;;3.07;;
803;SDS011;25687;49.976;8.240;2023-02-28T07:05:38;4.07;;;3.20;;
803;SDS011;25687;49.976;8.240;2023-02-28T07:08:05;3.57;;;2.73;;
803;SDS011;25687;49.976;8.240;2023-02-28T07:10:31;3.57;;;3.13;;
803;SDS011;25687;49.976;8.240;2023-02-28T07:12:57;4.47;;;3.70;;
803;SDS011;25687;49.976;8.240;2023-02-28T07:15:23;3.20;;;2.90;;
803;SDS011;25687;49.976;8.240;2023-02-28T07:17:48;4.83;;;3.40;;
803;SDS011;25687;49.976;8.240;2023-02-28T07:20:14;2.93;;;2.60;;
803;SDS011;25687;49.976;8.240;2023-02-28T07:22:39;5.50;;;3.53;;
803;SDS011;25687;49.976;8.240;2023-02-28T07:25:05;3.63;;;3.03;;
803;SDS011;25687;49.976;8.240;2023-02-28T07:27:31;6.53;;;3.30;;
803;SDS011;25687;49.976;8.240;2023-02-28T07:29:56;3.60;;;3.13;;
803;SDS011;25687;49.976;8.240;2023-02-28T07:32:21;5.27;;;3.07;;
803;SDS011;25687;49.976;8.240;2023-02-28T07:34:48;3.70;;;3.30;;
803;SDS011;25687;49.976;8.240;2023-02-28T07:37:13;3.93;;;3.00;;
803;SDS011;25687;49.976;8.240;2023-02-28T07:39:39;4.57;;;3.58;;
803;SDS011;25687;49.976;8.240;2023-02-28T07:42:07;3.50;;;3.07;;
803;SDS011;25687;49.976;8.240;2023-02-28T07:44:35;4.43;;;3.03;;
803;SDS011;25687;49.976;8.240;2023-02-28T07:47:05;4.87;;;3.63;;
803;SDS011;25687;49.976;8.240;2023-02-28T07:49:31;3.47;;;2.90;;
803;SDS011;25687;49.976;8.240;2023-02-28T07:51:57;3.93;;;3.27;;
803;SDS011;25687;49.976;8.240;2023-02-28T07:54:22;5.07;;;3.33;;
803;SDS011;25687;49.976;8.240;2023-02-28T07:56:47;4.43;;;3.13;;
803;SDS011;25687;49.976;8.240;2023-02-28T07:59:12;4.90;;;3.90;;
803;SDS011;25687;49.976;8.240;2023-02-28T08:01:38;4.17;;;3.73;;
803;SDS011;25687;49.976;8.240;2023-02-28T08:04:03;4.83;;;3.47;;
803;SDS011;25687;49.976;8.240;2023-02-28T08:06:28;4.13;;;3.67;;
803;SDS011;25687;49.976;8.240;2023-02-28T08:08:53;4.07;;;3.50;;
803;SDS011;25687;49.976;8.240;2023-02-28T08:11:21;3.77;;;3.37;;
803;SDS011;25687;49.976;8.240;2023-02-28T08:13:46;4.53;;;3.93;;
803;SDS011;25687;49.976;8.240;2023-02-28T08:16:12;4.37;;;3.67;;
803;SDS011;25687;49.976;8.240;2023-02-28T08:18:46;6.18;;;3.88;;
803;SDS011;25687;49.976;8.240;2023-02-28T08:21:11;4.77;;;4.30;;
803;SDS011;25687;49.976;8.240;2023-02-28T08:23:37;4.43;;;3.47;;
803;SDS011;25687;49.976;8.240;2023-02-28T08:26:03;6.90;;;3.50;;
803;SDS011;25687;49.976;8.240;2023-02-28T08:28:29;6.20;;;4.13;;
803;SDS011;25687;49.976;8.240;2023-02-28T08:30:55;6.67;;;3.97;;
803;SDS011;25687;49.976;8.240;2023-02-28T08:33:21;5.97;;;3.93;;
803;SDS011;25687;49.976;8.240;2023-02-28T08:35:47;4.23;;;3.60;;
803;SDS011;25687;49.976;8.240;2023-02-28T08:38:13;6.57;;;4.43;;
803;SDS011;25687;49.976;8.240;2023-02-28T08:40:38;5.13;;;4.13;;
803;SDS011;25687;49.976;8.240;2023-02-28T08:43:03;4.73;;;3.63;;
803;SDS011;25687;49.976;8.240;2023-02-28T08:45:28;6.30;;;3.90;;
803;SDS011;25687;49.976;8.240;2023-02-28T08:47:54;5.03;;;3.33;;
803;SDS011;25687;49.976;8.240;2023-02-28T08:50:20;3.93;;;3.20;;
803;SDS011;25687;49.976;8.240;2023-02-28T08:52:46;4.70;;;3.50;;
803;SDS011;25687;49.976;8.240;2023-02-28T08:55:12;4.30;;;3.33;;
803;SDS011;25687;49.976;8.240;2023-02-28T08:57:37;4.30;;;3.27;;
803;SDS011;25687;49.976;8.240;2023-02-28T09:00:03;4.63;;;3.03;;
803;SDS011;25687;49.976;8.240;2023-02-28T09:02:29;4.97;;;3.23;;
803;SDS011;25687;49.976;8.240;2023-02-28T09:04:56;10.73;;;3.90;;
803;SDS011;25687;49.976;8.240;2023-02-28T09:07:21;3.80;;;3.30;;
803;SDS011;25687;49.976;8.240;2023-02-28T09:09:46;3.37;;;3.07;;
803;SDS011;25687;49.976;8.240;2023-02-28T09:12:24;5.73;;;3.60;;
803;SDS011;25687;49.976;8.240;2023-02-28T09:14:51;7.20;;;3.13;;
803;SDS011;25687;49.976;8.240;2023-02-28T09:17:17;4.17;;;3.33;;
803;SDS011;25687;49.976;8.240;2023-02-28T09:19:43;3.47;;;3.10;;
803;SDS011;25687;49.976;8.240;2023-02-28T09:22:09;4.70;;;4.17;;
803;SDS011;25687;49.976;8.240;2023-02-28T09:24:35;3.43;;;3.10;;
803;SDS011;25687;49.976;8.240;2023-02-28T09:27:02;6.73;;;3.90;;
803;SDS011;25687;49.976;8.240;2023-02-28T09:29:27;3.70;;;2.90;;
803;SDS011;25687;49.976;8.240;2023-02-28T09:31:52;3.40;;;3.10;;
803;SDS011;25687;49.976;8.240;2023-02-28T09:34:18;3.87;;;3.30;;
803;SDS011;25687;49.976;8.240;2023-02-28T09:36:43;3.53;;;3.07;;
803;SDS011;25687;49.976;8.240;2023-02-28T09:39:08;3.97;;;3.47;;
803;SDS011;25687;49.976;8.240;2023-02-28T09:41:38;3.60;;;3.30;;
803;SDS011;25687;49.976;8.240;2023-02-28T09:44:12;3.37;;;2.57;;
803;SDS011;25687;49.976;8.240;2023-02-28T09:46:46;5.13;;;2.93;;
803;SDS011;25687;49.976;8.240;2023-02-28T09:49:18;5.07;;;3.40;;
803;SDS011;25687;49.976;8.240;2023-02-28T09:51:50;3.63;;;3.00;;
803;SDS011;25687;49.976;8.240;2023-02-28T09:54:22;3.30;;;2.90;;
803;SDS011;25687;49.976;8.240;2023-02-28T09:56:53;4.00;;;3.17;;
803;SDS011;25687;49.976;8.240;2023-02-28T10:02:15;3.27;;;2.97;;
803;SDS011;25687;49.976;8.240;2023-02-28T10:04:54;3.90;;;3.40;;
803;SDS011;25687;49.976;8.240;2023-02-28T10:10:04;4.17;;;3.57;;
803;SDS011;25687;49.976;8.240;2023-02-28T10:12:43;4.27;;;2.93;;
803;SDS011;25687;49.976;8.240;2023-02-28T10:15:15;4.90;;;3.40;;
803;SDS011;25687;49.976;8.240;2023-02-28T10:17:42;5.32;;;3.47;;
803;SDS011;25687;49.976;8.240;2023-02-28T10:20:13;5.43;;;3.30;;
803;SDS011;25687;49.976;8.240;2023-02-28T10:23:28;2.97;;;2.60;;
803;SDS011;25687;49.976;8.240;2023-02-28T10:25:47;4.47;;;3.20;;
803;SDS011;25687;49.976;8.240;2023-02-28T10:28:19;4.63;;;3.47;;
803;SDS011;25687;49.976;8.240;2023-02-28T10:30:48;4.43;;;3.30;;
803;SDS011;25687;49.976;8.240;2023-02-28T10:33:30;3.67;;;3.27;;
803;SDS011;25687;49.976;8.240;2023-02-28T10:35:57;6.17;;;3.67;;
803;SDS011;25687;49.976;8.240;2023-02-28T10:38:24;3.73;;;2.90;;
803;SDS011;25687;49.976;8.240;2023-02-28T10:40:57;8.30;;;3.70;;
803;SDS011;25687;49.976;8.240;2023-02-28T10:43:32;4.53;;;3.30;;
803;SDS011;25687;49.976;8.240;2023-02-28T10:46:02;4.10;;;3.37;;
803;SDS011;25687;49.976;8.240;2023-02-28T10:48:34;3.80;;;3.40;;
803;SDS011;25687;49.976;8.240;2023-02-28T10:51:02;5.30;;;3.70;;
803;SDS011;25687;49.976;8.240;2023-02-28T10:53:34;3.40;;;3.10;;
803;SDS011;25687;49.976;8.240;2023-02-28T10:56:09;6.53;;;3.30;;
803;SDS011;25687;49.976;8.240;2023-02-28T10:59:01;4.07;;;3.23;;
803;SDS011;25687;49.976;8.240;2023-02-28T11:01:42;4.60;;;3.70;;
803;SDS011;25687;49.976;8.240;2023-02-28T11:07:04;3.90;;;3.50;;
803;SDS011;25687;49.976;8.240;2023-02-28T11:09:52;3.93;;;3.53;;
803;SDS011;25687;49.976;8.240;2023-02-28T11:15:04;5.27;;;4.27;;
803;SDS011;25687;49.976;8.240;2023-02-28T11:17:39;6.23;;;3.53;;
803;SDS011;25687;49.976;8.240;2023-02-28T11:20:06;3.40;;;2.90;;
803;SDS011;25687;49.976;8.240;2023-02-28T11:22:43;8.03;;;3.63;;
803;SDS011;25687;49.976;8.240;2023-02-28T11:25:16;4.77;;;4.20;;
803;SDS011;25687;49.976;8.240;2023-02-28T11:27:52;9.40;;;5.53;;
803;SDS011;25687;49.976;8.240;2023-02-28T11:32:53;6.90;;;4.03;;
803;SDS011;25687;49.976;8.240;2023-02-28T11:38:04;6.50;;;3.77;;
803;SDS011;25687;49.976;8.240;2023-02-28T11:40:39;3.87;;;3.50;;
803;SDS011;25687;49.976;8.240;2023-02-28T11:49:31;6.33;;;3.70;;
803;SDS011;25687;49.976;8.240;2023-02-28T12:01:14;4.47;;;4.03;;
803;SDS011;25687;49.976;8.240;2023-02-28T12:12:43;4.20;;;3.80;;
803;SDS011;25687;49.976;8.240;2023-02-28T12:18:12;4.30;;;3.80;;
803;SDS011;25687;49.976;8.240;2023-02-28T12:28:54;6.57;;;4.60;;
803;SDS011;25687;49.976;8.240;2023-02-28T12:31:28;4.47;;;4.00;;
803;SDS011;25687;49.976;8.240;2023-02-28T12:33:58;6.93;;;4.23;;
803;SDS011;25687;49.976;8.240;2023-02-28T12:36:26;4.67;;;3.93;;
803;SDS011;25687;49.976;8.240;2023-02-28T12:38:58;4.53;;;4.10;;
803;SDS011;25687;49.976;8.240;2023-02-28T12:44:15;6.20;;;4.77;;
803;SDS011;25687;49.976;8.240;2023-02-28T12:46:47;5.00;;;4.43;;
803;SDS011;25687;49.976;8.240;2023-02-28T12:51:47;5.07;;;4.57;;
803;SDS011;25687;49.976;8.240;2023-02-28T12:59:48;6.20;;;4.70;;
803;SDS011;25687;49.976;8.240;2023-02-28T13:02:22;5.43;;;4.93;;
803;SDS011;25687;49.976;8.240;2023-02-28T13:11:03;6.07;;;3.97;;
803;SDS011;25687;49.976;8.240;2023-02-28T13:13:29;5.40;;;4.90;;
803;SDS011;25687;49.976;8.240;2023-02-28T13:16:05;6.97;;;4.37;;
803;SDS011;25687;49.976;8.240;2023-02-28T13:21:03;6.73;;;4.17;;
803;SDS011;25687;49.976;8.240;2023-02-28T13:23:36;5.83;;;4.40;;
803;SDS011;25687;49.976;8.240;2023-02-28T13:26:05;7.03;;;5.10;;
803;SDS011;25687;49.976;8.240;2023-02-28T13:31:20;5.63;;;4.93;;
803;SDS011;25687;49.976;8.240;2023-02-28T13:44:08;7.93;;;5.70;;
803;SDS011;25687;49.976;8.240;2023-02-28T13:47:23;4.77;;;4.33;;
803;SDS011;25687;49.976;8.240;2023-02-28T13:56:49;6.13;;;5.43;;
803;SDS011;25687;49.976;8.240;2023-02-28T13:59:30;6.73;;;5.50;;
803;SDS011;25687;49.976;8.240;2023-02-28T14:04:59;6.28;;;5.63;;
803;SDS011;25687;49.976;8.240;2023-02-28T14:07:31;12.07;;;5.77;;
803;SDS011;25687;49.976;8.240;2023-02-28T14:10:04;5.73;;;5.13;;
803;SDS011;25687;49.976;8.240;2023-02-28T14:15:30;5.87;;;5.10;;
803;SDS011;25687;49.976;8.240;2023-02-28T14:37:53;6.45;;;5.53;;
803;SDS011;25687;49.976;8.240;2023-02-28T14:40:28;9.70;;;4.97;;
803;SDS011;25687;49.976;8.240;2023-02-28T14:42:58;8.87;;;5.27;;
803;SDS011;25687;49.976;8.240;2023-02-28T14:45:28;11.90;;;5.07;;
803;SDS011;25687;49.976;8.240;2023-02-28T14:47:55;7.23;;;5.23;;
803;SDS011;25687;49.976;8.240;2023-02-28T14:50:32;5.77;;;4.70;;
803;SDS011;25687;49.976;8.240;2023-02-28T14:53:00;5.73;;;5.13;;
803;SDS011;25687;49.976;8.240;2023-02-28T14:55:36;5.50;;;5.00;;
803;SDS011;25687;49.976;8.240;2023-02-28T14:58:03;5.83;;;5.13;;
803;SDS011;25687;49.976;8.240;2023-02-28T15:00:35;6.50;;;6.00;;
803;SDS011;25687;49.976;8.240;2023-02-28T15:05:53;9.00;;;5.87;;
803;SDS011;25687;49.976;8.240;2023-02-28T15:08:21;6.60;;;5.60;;
803;SDS011;25687;49.976;8.240;2023-02-28T15:10:54;6.13;;;5.40;;
803;SDS011;25687;49.976;8.240;2023-02-28T15:13:44;6.73;;;6.00;;
803;SDS011;25687;49.976;8.240;2023-02-28T15:18:49;5.67;;;4.90;;
803;SDS011;25687;49.976;8.240;2023-02-28T15:21:21;7.00;;;4.83;;
803;SDS011;25687;49.976;8.240;2023-02-28T15:23:51;6.63;;;5.20;;
803;SDS011;25687;49.976;8.240;2023-02-28T15:26:29;5.53;;;5.03;;
803;SDS011;25687;49.976;8.240;2023-02-28T15:28:59;6.50;;;5.53;;
803;SDS011;25687;49.976;8.240;2023-02-28T15:31:28;6.60;;;5.65;;
803;SDS011;25687;49.976;8.240;2023-02-28T15:33:56;5.93;;;5.10;;
803;SDS011;25687;49.976;8.240;2023-02-28T15:36:31;7.07;;;5.40;;
803;SDS011;25687;49.976;8.240;2023-02-28T15:38:59;5.57;;;5.07;;
803;SDS011;25687;49.976;8.240;2023-02-28T15:41:29;6.67;;;5.30;;
803;SDS011;25687;49.976;8.240;2023-02-28T15:46:41;5.77;;;5.23;;
803;SDS011;25687;49.976;8.240;2023-02-28T15:49:17;7.90;;;5.70;;
803;SDS011;25687;49.976;8.240;2023-02-28T15:51:45;7.75;;;6.35;;
803;SDS011;25687;49.976;8.240;2023-02-28T15:54:12;8.03;;;5.80;;
803;SDS011;25687;49.976;8.240;2023-02-28T15:56:43;7.05;;;6.05;;
803;SDS011;25687;49.976;8.240;2023-02-28T15:59:15;8.03;;;7.07;;
803;SDS011;25687;49.976;8.240;2023-02-28T16:01:44;6.03;;;5.43;;
803;SDS011;25687;49.976;8.240;2023-02-28T16:04:14;7.17;;;5.83;;
803;SDS011;25687;49.976;8.240;2023-02-28T16:09:22;7.57;;;6.63;;
803;SDS011;25687;49.976;8.240;2023-02-28T16:11:48;6.33;;;5.80;;
803;SDS011;25687;49.976;8.240;2023-02-28T16:14:21;5.87;;;5.27;;
803;SDS011;25687;49.976;8.240;2023-02-28T16:16:49;6.17;;;5.57;;
803;SDS011;25687;49.976;8.240;2023-02-28T16:19:17;6.30;;;5.70;;
803;SDS011;25687;49.976;8.240;2023-02-28T16:21:42;6.77;;;6.17;;
803;SDS011;25687;49.976;8.240;2023-02-28T16:24:08;6.93;;;5.80;;
803;SDS011;25687;49.976;8.240;2023-02-28T16:26:33;6.13;;;5.30;;
803;SDS011;25687;49.976;8.240;2023-02-28T16:29:00;10.83;;;5.13;;
803;SDS011;25687;49.976;8.240;2023-02-28T16:31:27;6.23;;;5.63;;
803;SDS011;25687;49.976;8.240;2023-02-28T16:33:53;7.73;;;6.10;;
803;SDS011;25687;49.976;8.240;2023-02-28T16:36:23;9.20;;;6.20;;
803;SDS011;25687;49.976;8.240;2023-02-28T16:38:51;6.37;;;5.27;;
803;SDS011;25687;49.976;8.240;2023-02-28T16:41:18;5.50;;;5.00;;
803;SDS011;25687;49.976;8.240;2023-02-28T16:43:49;6.97;;;5.13;;
803;SDS011;25687;49.976;8.240;2023-02-28T16:46:16;5.83;;;5.23;;
803;SDS011;25687;49.976;8.240;2023-02-28T16:48:43;6.53;;;5.20;;
803;SDS011;25687;49.976;8.240;2023-02-28T16:51:12;6.90;;;5.67;;
803;SDS011;25687;49.976;8.240;2023-02-28T16:53:39;6.55;;;5.60;;
803;SDS011;25687;49.976;8.240;2023-02-28T16:56:05;6.23;;;5.63;;
803;SDS011;25687;49.976;8.240;2023-02-28T16:58:31;6.17;;;5.57;;
803;SDS011;25687;49.976;8.240;2023-02-28T17:01:00;6.73;;;5.70;;
803;SDS011;25687;49.976;8.240;2023-02-28T17:03:26;5.63;;;5.00;;
803;SDS011;25687;49.976;8.240;2023-02-28T17:05:52;5.97;;;5.03;;
803;SDS011;25687;49.976;8.240;2023-02-28T17:08:18;5.83;;;4.87;;
803;SDS011;25687;49.976;8.240;2023-02-28T17:10:43;6.20;;;5.30;;
803;SDS011;25687;49.976;8.240;2023-02-28T17:13:09;7.27;;;5.27;;
803;SDS011;25687;49.976;8.240;2023-02-28T17:15:34;6.43;;;5.33;;
803;SDS011;25687;49.976;8.240;2023-02-28T17:18:00;6.77;;;5.33;;
803;SDS011;25687;49.976;8.240;2023-02-28T17:20:26;8.77;;;5.80;;
803;SDS011;25687;49.976;8.240;2023-02-28T17:22:54;6.80;;;5.40;;
803;SDS011;25687;49.976;8.240;2023-02-28T17:25:21;7.43;;;5.00;;
803;SDS011;25687;49.976;8.240;2023-02-28T17:27:47;6.97;;;5.43;;
803;SDS011;25687;49.976;8.240;2023-02-28T17:30:13;6.67;;;5.63;;
803;SDS011;25687;49.976;8.240;2023-02-28T17:32:41;7.40;;;5.93;;
803;SDS011;25687;49.976;8.240;2023-02-28T17:35:07;6.33;;;5.50;;
803;SDS011;25687;49.976;8.240;2023-02-28T17:37:33;8.43;;;6.10;;
803;SDS011;25687;49.976;8.240;2023-02-28T17:39:58;7.27;;;5.83;;
803;SDS011;25687;49.976;8.240;2023-02-28T17:42:23;9.70;;;6.00;;
803;SDS011;25687;49.976;8.240;2023-02-28T17:44:48;6.97;;;5.10;;
803;SDS011;25687;49.976;8.240;2023-02-28T17:47:14;6.50;;;5.30;;
803;SDS011;25687;49.976;8.240;2023-02-28T17:49:39;6.63;;;5.90;;
803;SDS011;25687;49.976;8.240;2023-02-28T17:52:04;7.67;;;5.70;;
803;SDS011;25687;49.976;8.240;2023-02-28T17:54:29;6.40;;;5.60;;
803;SDS011;25687;49.976;8.240;2023-02-28T17:56:55;8.63;;;6.10;;